createdAt,value
2022-10-02T00:00:34.194Z,26.10
2022-10-02T00:03:22.482Z,26.00
2022-10-02T00:06:04.684Z,25.80
2022-10-02T00:08:40.364Z,25.60
2022-10-02T00:11:23.322Z,25.40
2022-10-02T00:14:03.906Z,25.10
2022-10-02T00:16:52.228Z,25.00
2022-10-02T00:19:24.516Z,24.90
2022-10-02T00:22:07.500Z,24.60
2022-10-02T00:25:04.196Z,24.70
2022-10-02T00:27:55.110Z,24.50
2022-10-02T00:30:28.369Z,24.40
2022-10-02T00:33:26.932Z,24.30
2022-10-02T00:36:21.581Z,24.20
2022-10-02T00:39:29.445Z,24.30
2022-10-02T00:42:23.415Z,24.40
2022-10-02T00:44:59.583Z,24.30
2022-10-02T00:48:05.032Z,24.30
2022-10-02T00:51:13.494Z,24.30
2022-10-02T00:54:19.649Z,24.30
2022-10-02T00:57:02.101Z,24.20
2022-10-02T01:00:00.362Z,24.10
2022-10-02T01:02:34.100Z,24.10
2022-10-02T01:05:10.613Z,23.90
2022-10-02T01:07:46.197Z,23.90
2022-10-02T01:10:19.450Z,23.80
2022-10-02T01:12:50.886Z,23.70
2022-10-02T01:15:28.791Z,23.60
2022-10-02T01:18:00.948Z,23.50
2022-10-02T01:20:48.831Z,23.60
2022-10-02T01:23:48.842Z,23.40
2022-10-02T01:26:21.423Z,23.30
2022-10-02T01:28:53.443Z,23.30
2022-10-02T01:31:25.934Z,23.20
2022-10-02T01:33:56.037Z,23.00
2022-10-02T01:36:31.428Z,23.00
2022-10-02T01:39:02.947Z,22.90
2022-10-02T01:41:34.039Z,22.80
2022-10-02T01:44:05.552Z,22.80
2022-10-02T01:46:56.419Z,22.80
2022-10-02T01:49:59.343Z,22.70
2022-10-02T01:52:51.553Z,22.70
2022-10-02T01:56:07.979Z,22.80
2022-10-02T01:58:55.193Z,22.80
2022-10-02T02:01:26.643Z,22.80
2022-10-02T02:04:35.031Z,22.70
2022-10-02T02:07:20.084Z,22.70
2022-10-02T02:10:02.213Z,22.60
2022-10-02T02:12:48.363Z,22.60
2022-10-02T02:15:35.445Z,22.40
2022-10-02T02:18:31.370Z,22.30
2022-10-02T02:21:10.245Z,22.10
2022-10-02T02:23:43.026Z,21.90
2022-10-02T02:26:20.720Z,22.00
2022-10-02T02:28:59.180Z,21.90
2022-10-02T02:31:43.795Z,21.90
2022-10-02T02:34:17.535Z,21.70
2022-10-02T02:36:52.106Z,21.70
2022-10-02T02:39:30.857Z,21.70
2022-10-02T02:42:11.116Z,21.70
2022-10-02T02:44:51.087Z,21.60
2022-10-02T02:47:32.713Z,21.40
2022-10-02T02:50:22.995Z,21.50
2022-10-02T02:53:14.370Z,21.50
2022-10-02T02:55:52.622Z,21.50
2022-10-02T02:58:48.997Z,21.40
2022-10-02T03:01:25.651Z,21.30
2022-10-02T03:04:09.220Z,21.20
2022-10-02T03:06:48.184Z,21.20
2022-10-02T03:09:27.630Z,21.20
2022-10-02T03:12:06.769Z,21.10
2022-10-02T03:15:03.495Z,21.00
2022-10-02T03:17:55.973Z,20.90
2022-10-02T03:20:43.095Z,21.00
2022-10-02T03:23:53.412Z,20.80
2022-10-02T03:26:30.827Z,20.60
2022-10-02T03:29:05.986Z,20.50
2022-10-02T03:31:41.682Z,20.50
2022-10-02T03:34:13.263Z,20.50
2022-10-02T03:36:49.532Z,20.50
2022-10-02T03:39:25.102Z,20.40
2022-10-02T03:41:57.674Z,20.40
2022-10-02T03:44:27.713Z,20.60
2022-10-02T03:46:58.489Z,20.70
2022-10-02T03:49:35.353Z,20.50
2022-10-02T03:52:17.968Z,20.30
2022-10-02T03:54:51.179Z,20.20
2022-10-02T03:57:28.546Z,20.10
2022-10-02T04:00:19.073Z,20.00
2022-10-02T04:03:01.145Z,20.10
2022-10-02T04:06:03.421Z,20.20
2022-10-02T04:09:31.981Z,20.20
2022-10-02T04:12:09.624Z,20.00
2022-10-02T04:15:16.040Z,19.90
2022-10-02T04:17:56.897Z,19.80
2022-10-02T04:20:43.446Z,19.70
2022-10-02T04:23:44.111Z,19.60
2022-10-02T04:26:43.868Z,19.50
2022-10-02T04:29:21.667Z,19.70
2022-10-02T04:32:02.142Z,19.60
2022-10-02T04:34:33.995Z,19.60
2022-10-02T04:37:10.288Z,19.60
2022-10-02T04:39:53.496Z,19.50
2022-10-02T04:42:51.465Z,19.50
2022-10-02T04:45:33.061Z,19.30
2022-10-02T04:48:18.835Z,19.30
2022-10-02T04:51:01.565Z,19.20
2022-10-02T04:53:43.475Z,19.20
2022-10-02T04:57:03.634Z,19.30
2022-10-02T04:59:39.485Z,19.10
2022-10-02T05:02:24.027Z,19.10
2022-10-02T05:04:54.856Z,19.00
2022-10-02T05:07:45.307Z,19.00
2022-10-02T05:10:18.606Z,18.90
2022-10-02T05:13:12.391Z,18.80
2022-10-02T05:16:14.143Z,18.60
2022-10-02T05:18:47.020Z,18.60
2022-10-02T05:22:00.561Z,18.60
2022-10-02T05:24:36.040Z,18.60
2022-10-02T05:27:29.962Z,18.60
2022-10-02T05:30:07.814Z,18.60
2022-10-02T05:33:23.326Z,18.60
2022-10-02T05:36:23.597Z,18.40
2022-10-02T05:39:00.554Z,18.40
2022-10-02T05:41:42.298Z,18.30
2022-10-02T05:44:25.748Z,18.30
2022-10-02T05:47:11.156Z,18.30
2022-10-02T05:50:03.239Z,18.20
2022-10-02T05:52:59.954Z,18.10
2022-10-02T05:55:39.884Z,18.10
2022-10-02T05:58:29.298Z,18.10
2022-10-02T06:01:09.696Z,18.00
2022-10-02T06:04:11.274Z,18.20
2022-10-02T06:06:59.500Z,18.10
2022-10-02T06:09:45.141Z,18.00
2022-10-02T06:12:56.845Z,18.00
2022-10-02T06:15:43.655Z,17.90
2022-10-02T06:18:30.170Z,17.90
2022-10-02T06:21:26.176Z,17.90
2022-10-02T06:24:06.986Z,17.90
2022-10-02T06:26:43.527Z,17.90
2022-10-02T06:29:28.939Z,17.90
2022-10-02T06:32:24.284Z,18.00
2022-10-02T06:35:06.003Z,17.90
2022-10-02T06:37:52.319Z,17.90
2022-10-02T06:40:46.418Z,17.80
2022-10-02T06:43:33.786Z,17.50
2022-10-02T06:46:50.638Z,17.50
2022-10-02T06:49:47.104Z,17.50
2022-10-02T06:52:38.831Z,17.50
2022-10-02T06:55:32.368Z,17.40
2022-10-02T06:58:18.534Z,17.70
2022-10-02T07:01:10.972Z,17.60
2022-10-02T07:04:20.698Z,17.50
2022-10-02T07:07:28.486Z,17.40
2022-10-02T07:10:30.461Z,17.30
2022-10-02T07:13:51.731Z,17.20
2022-10-02T07:16:44.998Z,17.10
2022-10-02T07:20:00.935Z,17.10
2022-10-02T07:22:50.023Z,17.00
2022-10-02T07:25:41.592Z,16.90
2022-10-02T07:28:29.378Z,17.00
2022-10-02T07:31:25.425Z,17.00
2022-10-02T07:34:43.098Z,16.90
2022-10-02T07:37:33.624Z,17.20
2022-10-02T07:40:35.438Z,17.30
2022-10-02T07:43:26.333Z,17.10
2022-10-02T07:46:16.250Z,17.00
2022-10-02T07:48:56.113Z,17.00
2022-10-02T07:51:54.698Z,16.80
2022-10-02T07:54:50.289Z,16.80
2022-10-02T07:57:44.056Z,16.70
2022-10-02T08:00:20.538Z,16.70
2022-10-02T08:03:02.454Z,16.60
2022-10-02T08:06:02.670Z,16.50
2022-10-02T08:08:57.126Z,16.40
2022-10-02T08:11:48.592Z,16.30
2022-10-02T08:14:46.148Z,16.40
2022-10-02T08:17:40.556Z,16.50
2022-10-02T08:20:28.549Z,16.60
2022-10-02T08:23:33.921Z,16.60
2022-10-02T08:26:36.000Z,16.60
2022-10-02T08:29:11.182Z,16.50
2022-10-02T08:31:42.847Z,16.50
2022-10-02T08:34:25.732Z,16.40
2022-10-02T08:37:20.175Z,16.40
2022-10-02T08:40:10.692Z,16.40
2022-10-02T08:43:18.780Z,16.20
2022-10-02T08:46:26.944Z,16.00
2022-10-02T08:49:38.119Z,16.10
2022-10-02T08:52:27.337Z,16.20
2022-10-02T08:55:16.299Z,16.20
2022-10-02T08:58:08.019Z,16.10
2022-10-02T09:01:03.509Z,16.20
2022-10-02T09:03:56.875Z,15.90
2022-10-02T09:06:59.314Z,15.90
2022-10-02T09:10:00.581Z,15.90
2022-10-02T09:12:48.996Z,16.00
2022-10-02T09:15:39.951Z,16.10
2022-10-02T09:18:37.990Z,16.20
2022-10-02T09:21:17.990Z,16.00
2022-10-02T09:24:21.895Z,16.10
2022-10-02T09:27:20.801Z,16.10
2022-10-02T09:30:25.453Z,16.10
2022-10-02T09:33:32.149Z,16.00
2022-10-02T09:36:28.729Z,16.00
2022-10-02T09:39:56.567Z,15.80
2022-10-02T09:43:10.433Z,15.80
2022-10-02T09:46:31.214Z,15.90
2022-10-02T09:49:28.225Z,15.80
2022-10-02T09:52:11.249Z,15.80
2022-10-02T09:55:10.094Z,15.70
2022-10-02T09:57:55.930Z,15.70
2022-10-02T10:00:46.331Z,15.90
2022-10-02T10:03:41.106Z,15.90
2022-10-02T10:07:08.268Z,15.90
2022-10-02T10:10:00.792Z,15.80
2022-10-02T10:13:01.850Z,15.80
2022-10-02T10:16:11.860Z,15.80
2022-10-02T10:19:08.247Z,15.70
2022-10-02T10:22:15.521Z,15.60
2022-10-02T10:25:19.361Z,15.60
2022-10-02T10:28:21.302Z,15.60
2022-10-02T10:30:59.732Z,15.60
2022-10-02T10:33:54.137Z,15.60
2022-10-02T10:37:01.565Z,15.60
2022-10-02T10:40:14.864Z,15.60
2022-10-02T10:43:08.217Z,15.60
2022-10-02T10:46:00.427Z,15.70
2022-10-02T10:48:52.675Z,15.70
2022-10-02T10:51:58.554Z,15.60
2022-10-02T10:55:04.389Z,15.40
2022-10-02T10:57:58.834Z,15.30
2022-10-02T11:00:43.150Z,15.20
2022-10-02T11:03:58.970Z,15.20
2022-10-02T11:06:56.951Z,15.30
2022-10-02T11:09:53.615Z,15.40
2022-10-02T11:12:42.653Z,15.30
2022-10-02T11:15:51.341Z,15.20
2022-10-02T11:18:53.313Z,15.20
2022-10-02T11:21:36.166Z,14.90
2022-10-02T11:24:33.179Z,14.90
2022-10-02T11:27:39.246Z,15.00
2022-10-02T11:30:37.126Z,15.00
2022-10-02T11:33:29.372Z,15.10
2022-10-02T11:36:10.628Z,15.10
2022-10-02T11:39:02.090Z,15.10
2022-10-02T11:41:41.219Z,15.10
2022-10-02T11:44:34.444Z,15.20
2022-10-02T11:47:29.133Z,15.10
2022-10-02T11:50:41.185Z,15.20
2022-10-02T11:53:46.097Z,15.10
2022-10-02T11:57:01.426Z,15.10
2022-10-02T12:00:05.709Z,15.10
2022-10-02T12:02:48.660Z,15.00
2022-10-02T12:05:35.320Z,14.80
2022-10-02T12:08:18.854Z,14.80
2022-10-02T12:11:17.551Z,14.70
2022-10-02T12:14:10.732Z,14.70
2022-10-02T12:16:43.870Z,14.70
2022-10-02T12:19:26.834Z,14.70
2022-10-02T12:22:40.606Z,14.80
2022-10-02T12:26:15.413Z,14.70
2022-10-02T12:29:08.459Z,14.70
2022-10-02T12:32:17.769Z,14.70
2022-10-02T12:35:30.869Z,14.80
2022-10-02T12:38:23.475Z,14.60
2022-10-02T12:41:49.084Z,14.90
2022-10-02T12:44:45.690Z,15.00
2022-10-02T12:47:42.287Z,15.10
2022-10-02T12:50:40.425Z,14.90
2022-10-02T12:53:45.689Z,14.80
2022-10-02T12:56:29.170Z,14.90
2022-10-02T12:59:29.817Z,14.90
2022-10-02T13:02:59.608Z,15.10
2022-10-02T13:05:47.137Z,15.20
2022-10-02T13:08:26.688Z,15.20
2022-10-02T13:11:16.888Z,15.50
2022-10-02T13:14:35.177Z,15.80
2022-10-02T13:17:19.695Z,15.80
2022-10-02T13:20:16.484Z,15.70
2022-10-02T13:23:21.484Z,15.70
2022-10-02T13:26:27.237Z,15.90
2022-10-02T13:29:47.820Z,16.00
2022-10-02T13:32:40.728Z,16.10
2022-10-02T13:35:58.978Z,16.10
2022-10-02T13:38:58.885Z,16.20
2022-10-02T13:41:45.816Z,16.20
2022-10-02T13:44:18.597Z,16.30
2022-10-02T13:47:15.884Z,16.40
2022-10-02T13:50:16.759Z,16.50
2022-10-02T13:53:31.292Z,16.60
2022-10-02T13:56:15.439Z,16.70
2022-10-02T13:59:32.567Z,16.80
2022-10-02T14:02:27.705Z,17.00
2022-10-02T14:05:34.756Z,17.10
2022-10-02T14:08:28.577Z,17.30
2022-10-02T14:11:21.078Z,17.10
2022-10-02T14:14:34.624Z,17.10
2022-10-02T14:17:33.937Z,17.10
2022-10-02T14:20:17.294Z,17.10
2022-10-02T14:22:56.942Z,17.10
2022-10-02T14:25:37.943Z,17.40
2022-10-02T14:28:22.692Z,17.50
2022-10-02T14:31:07.543Z,17.60
2022-10-02T14:33:52.254Z,17.80
2022-10-02T14:36:38.760Z,17.90
2022-10-02T14:39:24.828Z,18.10
2022-10-02T14:42:17.090Z,18.20
2022-10-02T14:45:12.306Z,18.20
2022-10-02T14:48:03.224Z,18.30
2022-10-02T14:51:01.940Z,18.40
2022-10-02T14:53:51.317Z,18.40
2022-10-02T14:56:51.817Z,18.50
2022-10-02T15:00:12.136Z,18.60
2022-10-02T15:02:50.347Z,18.70
2022-10-02T15:05:54.959Z,18.70
2022-10-02T15:08:36.783Z,18.90
2022-10-02T15:11:20.742Z,19.00
2022-10-02T15:14:18.716Z,19.00
2022-10-02T15:17:22.743Z,19.10
2022-10-02T15:20:08.261Z,19.30
2022-10-02T15:22:49.193Z,19.40
2022-10-02T15:25:56.545Z,19.50
2022-10-02T15:28:39.655Z,19.60
2022-10-02T15:31:26.272Z,19.80
2022-10-02T15:34:17.579Z,19.90
2022-10-02T15:37:19.816Z,19.90
2022-10-02T15:40:12.720Z,20.10
2022-10-02T15:43:03.824Z,20.10
2022-10-02T15:45:37.084Z,20.30
2022-10-02T15:48:28.121Z,20.50
2022-10-02T15:51:30.145Z,20.60
2022-10-02T15:54:18.233Z,20.70
2022-10-02T15:57:12.244Z,20.80
2022-10-02T16:00:03.645Z,20.80
2022-10-02T16:02:59.571Z,20.90
2022-10-02T16:05:49.262Z,21.00
2022-10-02T16:08:54.238Z,21.10
2022-10-02T16:11:58.212Z,21.10
2022-10-02T16:14:40.517Z,21.20
2022-10-02T16:17:37.556Z,21.20
2022-10-02T16:20:15.128Z,21.30
2022-10-02T16:22:54.564Z,21.40
2022-10-02T16:25:54.696Z,21.50
2022-10-02T16:28:50.293Z,21.60
2022-10-02T16:32:04.205Z,21.70
2022-10-02T16:34:42.836Z,21.80
2022-10-02T16:37:54.418Z,21.80
2022-10-02T16:40:37.759Z,21.90
2022-10-02T16:43:45.236Z,22.00
2022-10-02T16:46:33.790Z,22.00
2022-10-02T16:49:36.921Z,22.10
2022-10-02T16:52:36.797Z,22.10
2022-10-02T16:55:48.725Z,22.00
2022-10-02T16:59:01.444Z,22.20
2022-10-02T17:02:18.231Z,22.50
2022-10-02T17:05:18.088Z,22.40
2022-10-02T17:08:03.702Z,22.70
2022-10-02T17:11:19.539Z,22.70
2022-10-02T17:14:24.487Z,22.80
2022-10-02T17:17:07.249Z,23.10
2022-10-02T17:20:06.730Z,23.00
2022-10-02T17:23:02.019Z,22.90
2022-10-02T17:25:51.045Z,22.90
2022-10-02T17:28:43.221Z,22.90
2022-10-02T17:31:43.523Z,23.00
2022-10-02T17:34:28.250Z,23.20
2022-10-02T17:37:08.565Z,23.40
2022-10-02T17:40:06.890Z,23.30
2022-10-02T17:43:08.697Z,23.40
2022-10-02T17:45:48.862Z,23.50
2022-10-02T17:48:48.951Z,23.80
2022-10-02T17:51:57.713Z,23.80
2022-10-02T17:55:21.596Z,23.80
2022-10-02T17:58:57.358Z,24.00
2022-10-02T18:01:57.986Z,24.20
2022-10-02T18:05:14.255Z,24.30
2022-10-02T18:08:04.220Z,24.10
2022-10-02T18:11:02.482Z,24.30
2022-10-02T18:13:59.726Z,24.30
2022-10-02T18:17:18.429Z,24.20
2022-10-02T18:20:23.003Z,24.10
2022-10-02T18:23:30.920Z,24.30
2022-10-02T18:26:31.416Z,24.50
2022-10-02T18:29:25.609Z,24.70
2022-10-02T18:32:50.550Z,24.60
2022-10-02T18:35:49.453Z,24.70
2022-10-02T18:38:46.995Z,24.60
2022-10-02T18:41:53.534Z,24.70
2022-10-02T18:44:34.976Z,24.70
2022-10-02T18:47:27.587Z,24.60
2022-10-02T18:50:26.997Z,24.70
2022-10-02T18:53:38.533Z,24.70
2022-10-02T18:56:26.883Z,24.80
2022-10-02T18:59:33.435Z,24.80
2022-10-02T19:02:28.425Z,24.90
2022-10-02T19:05:15.621Z,25.00
2022-10-02T19:08:14.742Z,24.80
2022-10-02T19:10:47.524Z,24.90
2022-10-02T19:13:43.622Z,25.10
2022-10-02T19:16:34.776Z,25.10
2022-10-02T19:19:26.024Z,25.10
2022-10-02T19:22:03.950Z,25.10
2022-10-02T19:24:42.740Z,25.10
2022-10-02T19:27:26.828Z,25.10
2022-10-02T19:30:10.221Z,25.10
2022-10-02T19:32:52.144Z,25.20
2022-10-02T19:35:29.898Z,25.30
2022-10-02T19:38:17.286Z,25.30
2022-10-02T19:41:01.813Z,25.40
2022-10-02T19:43:41.127Z,25.30
2022-10-02T19:46:25.368Z,25.20
2022-10-02T19:49:05.353Z,25.10
2022-10-02T19:51:49.828Z,25.50
2022-10-02T19:54:31.167Z,25.60
2022-10-02T19:57:15.640Z,25.40
2022-10-02T19:59:55.098Z,25.40
2022-10-02T20:02:38.151Z,25.40
2022-10-02T20:05:15.607Z,25.60
2022-10-02T20:07:55.164Z,25.70
2022-10-02T20:10:43.319Z,25.80
2022-10-02T20:13:27.610Z,25.70
2022-10-02T20:16:39.323Z,25.70
2022-10-02T20:19:29.660Z,25.50
2022-10-02T20:22:05.851Z,25.40
2022-10-02T20:25:05.404Z,25.50
2022-10-02T20:27:57.908Z,25.80
2022-10-02T20:30:36.581Z,25.80
2022-10-02T20:33:38.128Z,25.80
2022-10-02T20:36:40.091Z,25.80
2022-10-02T20:39:17.733Z,25.80
2022-10-02T20:42:21.486Z,25.90
2022-10-02T20:44:54.689Z,25.80
2022-10-02T20:48:00.350Z,25.80
2022-10-02T20:51:04.514Z,25.90
2022-10-02T20:54:16.194Z,25.80
2022-10-02T20:57:33.548Z,25.90
2022-10-02T21:00:25.362Z,25.90
2022-10-02T21:03:14.280Z,25.90
2022-10-02T21:06:09.629Z,25.90
2022-10-02T21:09:15.082Z,25.90
2022-10-02T21:12:28.931Z,25.90
2022-10-02T21:15:09.700Z,25.90
2022-10-02T21:18:02.080Z,25.90
2022-10-02T21:20:58.623Z,25.90
2022-10-02T21:24:05.747Z,26.00
2022-10-02T21:26:59.744Z,26.30
2022-10-02T21:29:59.926Z,26.40
2022-10-02T21:32:57.074Z,26.40
2022-10-02T21:36:01.767Z,26.30
2022-10-02T21:38:49.985Z,26.20
2022-10-02T21:41:57.097Z,26.20
2022-10-02T21:44:47.647Z,26.20
2022-10-02T21:47:55.326Z,26.30
2022-10-02T21:50:47.923Z,26.30
2022-10-02T21:53:39.896Z,26.20
2022-10-02T21:57:00.433Z,26.30
2022-10-02T22:00:07.953Z,26.40
2022-10-02T22:03:14.988Z,26.50
2022-10-02T22:06:21.503Z,26.40
2022-10-02T22:09:42.305Z,26.30
2022-10-02T22:12:21.330Z,26.30
2022-10-02T22:15:11.419Z,26.40
2022-10-02T22:18:03.575Z,26.40
2022-10-02T22:20:55.638Z,26.40
2022-10-02T22:23:54.278Z,26.40
2022-10-02T22:27:02.795Z,26.30
2022-10-02T22:29:56.456Z,26.10
2022-10-02T22:33:11.820Z,26.00
2022-10-02T22:36:00.717Z,26.00
2022-10-02T22:38:35.752Z,26.00
2022-10-02T22:41:29.301Z,26.00
2022-10-02T22:44:26.176Z,26.00
2022-10-02T22:47:17.951Z,26.10
2022-10-02T22:50:08.116Z,26.20
2022-10-02T22:53:25.659Z,26.10
2022-10-02T22:56:00.647Z,26.10
2022-10-02T22:58:45.964Z,26.00
2022-10-02T23:01:28.540Z,26.10
2022-10-02T23:04:24.774Z,26.00
2022-10-02T23:07:09.936Z,26.00
2022-10-02T23:10:24.508Z,25.90
2022-10-02T23:13:26.728Z,26.00
2022-10-02T23:16:01.384Z,25.90
2022-10-02T23:18:56.328Z,25.90
2022-10-02T23:21:45.234Z,25.90
2022-10-02T23:24:31.255Z,25.90
2022-10-02T23:27:37.716Z,25.90
2022-10-02T23:30:16.249Z,25.90
2022-10-02T23:33:19.990Z,25.70
2022-10-02T23:36:22.153Z,25.50
2022-10-02T23:39:16.216Z,25.40
2022-10-02T23:41:57.597Z,25.40
2022-10-02T23:44:34.376Z,25.20
2022-10-02T23:47:13.838Z,25.10
2022-10-02T23:49:56.733Z,25.00
2022-10-02T23:53:00.983Z,25.10
2022-10-02T23:56:02.738Z,25.00
2022-10-02T23:58:45.010Z,24.80
